sensor_id;sensor_type;location;lat;lon;timestamp;temperature;humidity
418;DHT22;49;48.530;9.200;2023-05-29T00:00:47;20.80;24.50
418;DHT22;49;48.530;9.200;2023-05-29T00:03:13;20.60;24.40
418;DHT22;49;48.530;9.200;2023-05-29T00:05:40;20.70;24.50
418;DHT22;49;48.530;9.200;2023-05-29T00:08:07;20.70;24.50
418;DHT22;49;48.530;9.200;2023-05-29T00:10:34;20.30;24.20
418;DHT22;49;48.530;9.200;2023-05-29T00:13:04;20.10;24.70
418;DHT22;49;48.530;9.200;2023-05-29T00:15:32;19.90;25.40
418;DHT22;49;48.530;9.200;2023-05-29T00:17:59;19.80;27.00
418;DHT22;49;48.530;9.200;2023-05-29T00:20:26;19.90;25.90
418;DHT22;49;48.530;9.200;2023-05-29T00:22:53;19.90;26.50
418;DHT22;49;48.530;9.200;2023-05-29T00:25:20;20.20;27.00
418;DHT22;49;48.530;9.200;2023-05-29T00:27:47;20.40;26.30
418;DHT22;49;48.530;9.200;2023-05-29T00:30:16;20.30;26.40
418;DHT22;49;48.530;9.200;2023-05-29T00:32:42;20.20;25.60
418;DHT22;49;48.530;9.200;2023-05-29T00:35:09;20.10;26.50
418;DHT22;49;48.530;9.200;2023-05-29T00:37:36;20.00;25.30
418;DHT22;49;48.530;9.200;2023-05-29T00:40:04;19.60;26.00
418;DHT22;49;48.530;9.200;2023-05-29T00:42:32;19.50;26.30
418;DHT22;49;48.530;9.200;2023-05-29T00:44:59;19.40;26.50
418;DHT22;49;48.530;9.200;2023-05-29T00:47:28;19.40;27.50
418;DHT22;49;48.530;9.200;2023-05-29T00:49:55;19.20;26.40
418;DHT22;49;48.530;9.200;2023-05-29T00:52:24;19.10;27.00
418;DHT22;49;48.530;9.200;2023-05-29T00:54:51;19.10;27.40
418;DHT22;49;48.530;9.200;2023-05-29T00:57:19;19.20;27.50
418;DHT22;49;48.530;9.200;2023-05-29T00:59:47;19.20;27.70
418;DHT22;49;48.530;9.200;2023-05-29T01:02:14;19.30;27.20
418;DHT22;49;48.530;9.200;2023-05-29T01:04:44;19.20;27.50
418;DHT22;49;48.530;9.200;2023-05-29T01:07:11;19.10;27.20
418;DHT22;49;48.530;9.200;2023-05-29T01:09:39;19.10;27.70
418;DHT22;49;48.530;9.200;2023-05-29T01:12:16;19.20;27.30
418;DHT22;49;48.530;9.200;2023-05-29T01:14:57;19.40;27.00
418;DHT22;49;48.530;9.200;2023-05-29T01:17:42;19.50;28.70
418;DHT22;49;48.530;9.200;2023-05-29T01:20:22;19.20;27.10
418;DHT22;49;48.530;9.200;2023-05-29T01:23:19;19.20;27.20
418;DHT22;49;48.530;9.200;2023-05-29T01:26:07;19.40;28.20
418;DHT22;49;48.530;9.200;2023-05-29T01:28:41;19.40;28.10
418;DHT22;49;48.530;9.200;2023-05-29T01:31:10;19.70;27.80
418;DHT22;49;48.530;9.200;2023-05-29T01:33:39;19.40;27.20
418;DHT22;49;48.530;9.200;2023-05-29T01:36:07;19.40;28.60
418;DHT22;49;48.530;9.200;2023-05-29T01:38:35;19.50;27.30
418;DHT22;49;48.530;9.200;2023-05-29T01:41:02;19.40;27.70
418;DHT22;49;48.530;9.200;2023-05-29T01:43:30;19.30;28.70
418;DHT22;49;48.530;9.200;2023-05-29T01:45:59;19.60;27.80
418;DHT22;49;48.530;9.200;2023-05-29T01:48:27;19.60;28.50
418;DHT22;49;48.530;9.200;2023-05-29T01:50:54;19.60;26.50
418;DHT22;49;48.530;9.200;2023-05-29T01:53:21;19.20;28.40
418;DHT22;49;48.530;9.200;2023-05-29T01:55:49;19.40;28.40
418;DHT22;49;48.530;9.200;2023-05-29T01:58:17;19.50;29.10
418;DHT22;49;48.530;9.200;2023-05-29T02:00:45;19.70;29.00
418;DHT22;49;48.530;9.200;2023-05-29T02:03:13;19.30;26.60
418;DHT22;49;48.530;9.200;2023-05-29T02:05:40;19.30;29.20
418;DHT22;49;48.530;9.200;2023-05-29T02:08:07;19.00;26.80
418;DHT22;49;48.530;9.200;2023-05-29T02:10:34;18.70;29.00
418;DHT22;49;48.530;9.200;2023-05-29T02:13:01;19.00;30.30
418;DHT22;49;48.530;9.200;2023-05-29T02:15:28;19.20;29.30
418;DHT22;49;48.530;9.200;2023-05-29T02:17:55;19.10;27.10
418;DHT22;49;48.530;9.200;2023-05-29T02:20:24;19.20;29.30
418;DHT22;49;48.530;9.200;2023-05-29T02:22:51;19.20;28.10
418;DHT22;49;48.530;9.200;2023-05-29T02:25:18;18.80;27.40
418;DHT22;49;48.530;9.200;2023-05-29T02:31:06;18.50;27.70
418;DHT22;49;48.530;9.200;2023-05-29T02:33:34;17.70;28.90
418;DHT22;49;48.530;9.200;2023-05-29T02:36:02;17.30;30.00
418;DHT22;49;48.530;9.200;2023-05-29T02:38:29;16.80;31.60
418;DHT22;49;48.530;9.200;2023-05-29T02:40:56;16.80;33.10
418;DHT22;49;48.530;9.200;2023-05-29T02:43:23;16.70;33.30
418;DHT22;49;48.530;9.200;2023-05-29T02:45:50;16.60;33.90
418;DHT22;49;48.530;9.200;2023-05-29T02:48:17;16.50;34.10
418;DHT22;49;48.530;9.200;2023-05-29T02:50:44;16.40;34.70
418;DHT22;49;48.530;9.200;2023-05-29T02:53:12;16.30;35.10
418;DHT22;49;48.530;9.200;2023-05-29T02:55:39;16.20;36.10
418;DHT22;49;48.530;9.200;2023-05-29T02:58:08;16.10;36.80
418;DHT22;49;48.530;9.200;2023-05-29T03:00:37;16.00;37.40
418;DHT22;49;48.530;9.200;2023-05-29T03:03:04;16.10;37.40
418;DHT22;49;48.530;9.200;2023-05-29T03:05:31;16.00;38.30
418;DHT22;49;48.530;9.200;2023-05-29T03:07:58;15.90;38.50
418;DHT22;49;48.530;9.200;2023-05-29T03:10:26;15.80;39.10
418;DHT22;49;48.530;9.200;2023-05-29T03:12:53;15.80;39.50
418;DHT22;49;48.530;9.200;2023-05-29T03:15:21;15.70;40.60
418;DHT22;49;48.530;9.200;2023-05-29T03:17:48;15.70;39.90
418;DHT22;49;48.530;9.200;2023-05-29T03:20:15;16.30;47.70
418;DHT22;49;48.530;9.200;2023-05-29T03:22:42;17.00;41.40
418;DHT22;49;48.530;9.200;2023-05-29T03:25:09;16.60;37.30
418;DHT22;49;48.530;9.200;2023-05-29T03:27:37;16.40;37.80
418;DHT22;49;48.530;9.200;2023-05-29T03:30:06;16.20;38.20
418;DHT22;49;48.530;9.200;2023-05-29T03:32:33;16.10;39.40
418;DHT22;49;48.530;9.200;2023-05-29T03:35:00;15.80;39.90
418;DHT22;49;48.530;9.200;2023-05-29T03:37:27;15.70;40.80
418;DHT22;49;48.530;9.200;2023-05-29T03:39:54;15.50;42.40
418;DHT22;49;48.530;9.200;2023-05-29T03:42:21;15.40;42.80
418;DHT22;49;48.530;9.200;2023-05-29T03:44:49;15.40;44.10
418;DHT22;49;48.530;9.200;2023-05-29T03:47:16;15.40;42.10
418;DHT22;49;48.530;9.200;2023-05-29T03:49:43;15.40;42.20
418;DHT22;49;48.530;9.200;2023-05-29T03:52:10;15.50;41.40
418;DHT22;49;48.530;9.200;2023-05-29T03:54:37;15.50;40.40
418;DHT22;49;48.530;9.200;2023-05-29T03:57:04;15.50;40.60
418;DHT22;49;48.530;9.200;2023-05-29T03:59:32;15.60;40.60
418;DHT22;49;48.530;9.200;2023-05-29T04:02:00;15.80;40.70
418;DHT22;49;48.530;9.200;2023-05-29T04:04:28;15.70;40.60
418;DHT22;49;48.530;9.200;2023-05-29T04:06:55;15.80;40.70
418;DHT22;49;48.530;9.200;2023-05-29T04:09:22;15.90;40.80
418;DHT22;49;48.530;9.200;2023-05-29T04:11:49;15.90;40.80
418;DHT22;49;48.530;9.200;2023-05-29T04:14:17;15.90;41.10
418;DHT22;49;48.530;9.200;2023-05-29T04:16:44;15.90;40.80
418;DHT22;49;48.530;9.200;2023-05-29T04:19:13;16.00;40.90
418;DHT22;49;48.530;9.200;2023-05-29T04:21:40;16.00;40.90
418;DHT22;49;48.530;9.200;2023-05-29T04:24:07;15.90;41.60
418;DHT22;49;48.530;9.200;2023-05-29T04:26:34;16.00;41.30
418;DHT22;49;48.530;9.200;2023-05-29T04:29:01;15.80;42.70
418;DHT22;49;48.530;9.200;2023-05-29T04:31:29;15.90;42.20
418;DHT22;49;48.530;9.200;2023-05-29T04:33:56;15.90;41.80
418;DHT22;49;48.530;9.200;2023-05-29T04:36:25;16.00;40.90
418;DHT22;49;48.530;9.200;2023-05-29T04:38:52;16.00;41.60
418;DHT22;49;48.530;9.200;2023-05-29T04:41:19;15.90;41.00
418;DHT22;49;48.530;9.200;2023-05-29T04:43:49;15.90;40.80
418;DHT22;49;48.530;9.200;2023-05-29T04:46:17;16.20;40.10
418;DHT22;49;48.530;9.200;2023-05-29T04:48:44;16.40;39.50
418;DHT22;49;48.530;9.200;2023-05-29T04:51:12;16.70;38.70
418;DHT22;49;48.530;9.200;2023-05-29T04:53:40;16.70;38.10
418;DHT22;49;48.530;9.200;2023-05-29T04:56:07;16.80;37.90
418;DHT22;49;48.530;9.200;2023-05-29T04:58:35;16.80;37.90
418;DHT22;49;48.530;9.200;2023-05-29T05:01:02;16.50;40.00
418;DHT22;49;48.530;9.200;2023-05-29T05:03:29;16.40;40.50
418;DHT22;49;48.530;9.200;2023-05-29T05:05:59;16.20;42.00
418;DHT22;49;48.530;9.200;2023-05-29T05:08:27;16.20;42.40
418;DHT22;49;48.530;9.200;2023-05-29T05:10:56;16.30;42.00
418;DHT22;49;48.530;9.200;2023-05-29T05:13:23;16.40;41.50
418;DHT22;49;48.530;9.200;2023-05-29T05:15:50;16.40;43.10
418;DHT22;49;48.530;9.200;2023-05-29T05:18:17;16.30;43.90
418;DHT22;49;48.530;9.200;2023-05-29T05:20:44;16.20;44.80
418;DHT22;49;48.530;9.200;2023-05-29T05:23:11;16.60;43.30
418;DHT22;49;48.530;9.200;2023-05-29T05:25:38;16.90;41.70
418;DHT22;49;48.530;9.200;2023-05-29T05:28:08;17.00;41.80
418;DHT22;49;48.530;9.200;2023-05-29T05:30:35;17.50;41.40
418;DHT22;49;48.530;9.200;2023-05-29T05:33:02;17.10;41.90
418;DHT22;49;48.530;9.200;2023-05-29T05:35:29;16.70;46.80
418;DHT22;49;48.530;9.200;2023-05-29T05:37:56;17.50;44.50
418;DHT22;49;48.530;9.200;2023-05-29T05:40:24;19.10;40.50
418;DHT22;49;48.530;9.200;2023-05-29T05:42:51;20.70;32.70
418;DHT22;49;48.530;9.200;2023-05-29T05:45:20;22.00;28.40
418;DHT22;49;48.530;9.200;2023-05-29T05:47:47;22.70;27.50
418;DHT22;49;48.530;9.200;2023-05-29T05:50:14;23.70;26.10
418;DHT22;49;48.530;9.200;2023-05-29T05:52:41;24.70;23.20
418;DHT22;49;48.530;9.200;2023-05-29T05:55:08;25.50;21.10
418;DHT22;49;48.530;9.200;2023-05-29T05:57:35;26.40;18.00
418;DHT22;49;48.530;9.200;2023-05-29T06:00:03;26.90;18.10
418;DHT22;49;48.530;9.200;2023-05-29T06:02:33;27.80;16.70
418;DHT22;49;48.530;9.200;2023-05-29T06:05:00;28.50;15.80
418;DHT22;49;48.530;9.200;2023-05-29T06:07:29;28.70;14.80
418;DHT22;49;48.530;9.200;2023-05-29T06:09:56;29.40;13.40
418;DHT22;49;48.530;9.200;2023-05-29T06:12:23;29.60;13.50
418;DHT22;49;48.530;9.200;2023-05-29T06:14:50;29.40;12.20
418;DHT22;49;48.530;9.200;2023-05-29T06:17:17;29.80;12.40
418;DHT22;49;48.530;9.200;2023-05-29T06:19:45;29.60;11.50
418;DHT22;49;48.530;9.200;2023-05-29T06:22:13;30.30;11.90
418;DHT22;49;48.530;9.200;2023-05-29T06:24:40;31.10;10.50
418;DHT22;49;48.530;9.200;2023-05-29T06:27:07;31.40;10.00
418;DHT22;49;48.530;9.200;2023-05-29T06:29:34;31.90;9.20
418;DHT22;49;48.530;9.200;2023-05-29T06:32:01;32.00;7.90
418;DHT22;49;48.530;9.200;2023-05-29T06:34:28;31.90;7.10
418;DHT22;49;48.530;9.200;2023-05-29T06:36:56;32.10;7.10
418;DHT22;49;48.530;9.200;2023-05-29T06:39:23;33.00;6.90
418;DHT22;49;48.530;9.200;2023-05-29T06:41:50;33.30;5.90
418;DHT22;49;48.530;9.200;2023-05-29T06:44:17;33.40;5.40
418;DHT22;49;48.530;9.200;2023-05-29T06:46:44;34.30;4.90
418;DHT22;49;48.530;9.200;2023-05-29T06:49:11;34.10;4.90
418;DHT22;49;48.530;9.200;2023-05-29T06:51:38;33.60;5.70
418;DHT22;49;48.530;9.200;2023-05-29T06:54:06;34.00;5.10
418;DHT22;49;48.530;9.200;2023-05-29T06:56:33;33.60;5.50
418;DHT22;49;48.530;9.200;2023-05-29T06:59:00;33.90;5.80
418;DHT22;49;48.530;9.200;2023-05-29T07:01:27;33.70;4.00
418;DHT22;49;48.530;9.200;2023-05-29T07:03:53;34.20;4.60
418;DHT22;49;48.530;9.200;2023-05-29T07:06:20;34.80;3.40
418;DHT22;49;48.530;9.200;2023-05-29T07:08:47;34.70;3.40
418;DHT22;49;48.530;9.200;2023-05-29T07:11:16;34.80;3.90
418;DHT22;49;48.530;9.200;2023-05-29T07:13:42;35.00;3.40
418;DHT22;49;48.530;9.200;2023-05-29T07:16:09;35.00;3.30
418;DHT22;49;48.530;9.200;2023-05-29T07:18:36;34.90;3.50
418;DHT22;49;48.530;9.200;2023-05-29T07:21:03;34.60;3.60
418;DHT22;49;48.530;9.200;2023-05-29T07:23:31;34.20;4.30
418;DHT22;49;48.530;9.200;2023-05-29T07:25:58;34.00;3.90
418;DHT22;49;48.530;9.200;2023-05-29T07:28:26;34.40;3.90
418;DHT22;49;48.530;9.200;2023-05-29T07:30:53;35.00;3.10
418;DHT22;49;48.530;9.200;2023-05-29T07:33:20;34.20;4.00
418;DHT22;49;48.530;9.200;2023-05-29T07:35:47;34.00;3.80
418;DHT22;49;48.530;9.200;2023-05-29T07:38:14;34.10;3.00
418;DHT22;49;48.530;9.200;2023-05-29T07:40:42;33.80;3.50
418;DHT22;49;48.530;9.200;2023-05-29T07:43:09;33.50;4.40
418;DHT22;49;48.530;9.200;2023-05-29T07:45:37;32.90;4.70
418;DHT22;49;48.530;9.200;2023-05-29T07:48:04;32.00;5.80
418;DHT22;49;48.530;9.200;2023-05-29T07:50:31;31.40;6.00
418;DHT22;49;48.530;9.200;2023-05-29T07:52:58;31.20;6.10
418;DHT22;49;48.530;9.200;2023-05-29T07:55:26;32.30;6.40
418;DHT22;49;48.530;9.200;2023-05-29T07:57:52;33.50;4.90
418;DHT22;49;48.530;9.200;2023-05-29T08:00:19;33.80;4.70
418;DHT22;49;48.530;9.200;2023-05-29T08:02:48;33.90;4.40
418;DHT22;49;48.530;9.200;2023-05-29T08:05:14;33.60;4.40
418;DHT22;49;48.530;9.200;2023-05-29T08:07:41;33.50;4.70
418;DHT22;49;48.530;9.200;2023-05-29T08:10:09;32.60;5.90
418;DHT22;49;48.530;9.200;2023-05-29T08:12:36;33.30;5.10
418;DHT22;49;48.530;9.200;2023-05-29T08:15:03;33.10;5.00
418;DHT22;49;48.530;9.200;2023-05-29T08:17:31;32.90;5.10
418;DHT22;49;48.530;9.200;2023-05-29T08:19:59;32.20;5.90
418;DHT22;49;48.530;9.200;2023-05-29T08:22:28;32.30;6.10
418;DHT22;49;48.530;9.200;2023-05-29T08:24:56;32.60;5.10
418;DHT22;49;48.530;9.200;2023-05-29T08:27:23;32.20;6.50
418;DHT22;49;48.530;9.200;2023-05-29T08:29:50;32.30;6.50
418;DHT22;49;48.530;9.200;2023-05-29T08:32:16;32.40;6.50
418;DHT22;49;48.530;9.200;2023-05-29T08:34:43;32.40;5.20
418;DHT22;49;48.530;9.200;2023-05-29T08:37:12;31.50;6.10
418;DHT22;49;48.530;9.200;2023-05-29T08:39:39;32.00;6.30
418;DHT22;49;48.530;9.200;2023-05-29T08:42:10;31.50;6.10
418;DHT22;49;48.530;9.200;2023-05-29T08:44:40;31.00;6.30
418;DHT22;49;48.530;9.200;2023-05-29T08:47:07;31.10;7.30
418;DHT22;49;48.530;9.200;2023-05-29T08:49:40;31.00;7.20
418;DHT22;49;48.530;9.200;2023-05-29T08:52:11;30.00;8.10
418;DHT22;49;48.530;9.200;2023-05-29T08:54:42;29.50;9.00
418;DHT22;49;48.530;9.200;2023-05-29T08:57:11;28.40;10.50
418;DHT22;49;48.530;9.200;2023-05-29T08:59:39;28.80;10.10
418;DHT22;49;48.530;9.200;2023-05-29T09:02:11;28.80;10.20
418;DHT22;49;48.530;9.200;2023-05-29T09:04:38;28.90;9.80
418;DHT22;49;48.530;9.200;2023-05-29T09:07:05;29.50;9.20
418;DHT22;49;48.530;9.200;2023-05-29T09:09:34;29.60;8.90
418;DHT22;49;48.530;9.200;2023-05-29T09:12:03;29.00;10.30
418;DHT22;49;48.530;9.200;2023-05-29T09:14:37;28.80;10.70
418;DHT22;49;48.530;9.200;2023-05-29T09:17:05;29.40;10.70
418;DHT22;49;48.530;9.200;2023-05-29T09:19:32;30.00;10.30
418;DHT22;49;48.530;9.200;2023-05-29T09:22:03;29.20;10.00
418;DHT22;49;48.530;9.200;2023-05-29T09:24:32;28.50;10.70
418;DHT22;49;48.530;9.200;2023-05-29T09:27:00;28.00;11.30
418;DHT22;49;48.530;9.200;2023-05-29T09:29:30;28.10;10.70
418;DHT22;49;48.530;9.200;2023-05-29T09:31:57;27.90;11.40
418;DHT22;49;48.530;9.200;2023-05-29T09:34:25;28.00;11.30
418;DHT22;49;48.530;9.200;2023-05-29T09:36:53;27.30;11.50
418;DHT22;49;48.530;9.200;2023-05-29T09:39:21;26.90;12.70
418;DHT22;49;48.530;9.200;2023-05-29T09:41:48;27.10;12.80
418;DHT22;49;48.530;9.200;2023-05-29T09:44:15;27.80;11.40
418;DHT22;49;48.530;9.200;2023-05-29T09:46:44;27.00;12.30
418;DHT22;49;48.530;9.200;2023-05-29T09:49:13;27.00;11.70
418;DHT22;49;48.530;9.200;2023-05-29T09:51:40;27.40;10.70
418;DHT22;49;48.530;9.200;2023-05-29T09:54:17;26.70;11.80
418;DHT22;49;48.530;9.200;2023-05-29T09:56:46;26.70;11.80
418;DHT22;49;48.530;9.200;2023-05-29T09:59:14;26.70;12.40
418;DHT22;49;48.530;9.200;2023-05-29T10:01:44;27.50;11.20
418;DHT22;49;48.530;9.200;2023-05-29T10:04:12;27.60;10.40
418;DHT22;49;48.530;9.200;2023-05-29T10:06:43;27.30;11.20
418;DHT22;49;48.530;9.200;2023-05-29T10:09:12;27.60;11.00
418;DHT22;49;48.530;9.200;2023-05-29T10:11:42;27.40;10.30
418;DHT22;49;48.530;9.200;2023-05-29T10:14:17;27.00;11.30
418;DHT22;49;48.530;9.200;2023-05-29T10:16:47;26.70;12.50
418;DHT22;49;48.530;9.200;2023-05-29T10:19:19;26.10;12.60
418;DHT22;49;48.530;9.200;2023-05-29T10:21:49;26.50;11.50
418;DHT22;49;48.530;9.200;2023-05-29T10:24:17;26.40;11.90
418;DHT22;49;48.530;9.200;2023-05-29T10:26:48;26.10;12.40
418;DHT22;49;48.530;9.200;2023-05-29T10:29:19;26.30;12.50
418;DHT22;49;48.530;9.200;2023-05-29T10:32:01;26.60;11.70
418;DHT22;49;48.530;9.200;2023-05-29T10:34:39;26.40;11.60
418;DHT22;49;48.530;9.200;2023-05-29T10:37:13;25.90;12.60
418;DHT22;49;48.530;9.200;2023-05-29T10:39:42;26.00;11.30
418;DHT22;49;48.530;9.200;2023-05-29T10:42:44;26.10;11.70
418;DHT22;49;48.530;9.200;2023-05-29T10:45:13;26.00;12.40
418;DHT22;49;48.530;9.200;2023-05-29T10:51:28;26.80;10.90
418;DHT22;49;48.530;9.200;2023-05-29T10:53:56;27.40;10.30
418;DHT22;49;48.530;9.200;2023-05-29T10:56:28;27.30;10.30
418;DHT22;49;48.530;9.200;2023-05-29T10:58:57;26.30;11.30
418;DHT22;49;48.530;9.200;2023-05-29T11:01:28;26.60;10.60
418;DHT22;49;48.530;9.200;2023-05-29T11:04:26;26.80;10.30
418;DHT22;49;48.530;9.200;2023-05-29T11:06:55;26.70;10.40
418;DHT22;49;48.530;9.200;2023-05-29T11:09:29;26.70;10.40
418;DHT22;49;48.530;9.200;2023-05-29T11:12:17;26.90;9.90
418;DHT22;49;48.530;9.200;2023-05-29T11:15:03;26.60;10.10
418;DHT22;49;48.530;9.200;2023-05-29T11:17:32;26.30;10.50
418;DHT22;49;48.530;9.200;2023-05-29T11:20:02;26.40;10.00
418;DHT22;49;48.530;9.200;2023-05-29T11:22:53;26.60;10.00
418;DHT22;49;48.530;9.200;2023-05-29T11:25:23;26.50;9.30
418;DHT22;49;48.530;9.200;2023-05-29T11:27:50;26.20;9.70
418;DHT22;49;48.530;9.200;2023-05-29T11:30:17;26.30;9.60
418;DHT22;49;48.530;9.200;2023-05-29T11:32:45;26.10;10.00
418;DHT22;49;48.530;9.200;2023-05-29T11:35:13;26.50;9.90
418;DHT22;49;48.530;9.200;2023-05-29T11:37:43;26.70;10.10
418;DHT22;49;48.530;9.200;2023-05-29T11:40:13;26.60;9.50
418;DHT22;49;48.530;9.200;2023-05-29T11:42:42;26.70;9.00
418;DHT22;49;48.530;9.200;2023-05-29T11:45:15;26.90;8.80
418;DHT22;49;48.530;9.200;2023-05-29T11:47:52;26.90;8.70
418;DHT22;49;48.530;9.200;2023-05-29T11:50:20;26.90;9.00
418;DHT22;49;48.530;9.200;2023-05-29T11:52:48;26.60;7.80
418;DHT22;49;48.530;9.200;2023-05-29T11:55:17;26.50;8.20
418;DHT22;49;48.530;9.200;2023-05-29T11:57:44;26.50;8.00
418;DHT22;49;48.530;9.200;2023-05-29T12:00:13;26.50;9.00
418;DHT22;49;48.530;9.200;2023-05-29T12:02:40;26.80;8.90
418;DHT22;49;48.530;9.200;2023-05-29T12:05:09;27.10;8.90
418;DHT22;49;48.530;9.200;2023-05-29T12:07:48;27.30;7.80
418;DHT22;49;48.530;9.200;2023-05-29T12:10:16;26.80;7.40
418;DHT22;49;48.530;9.200;2023-05-29T12:12:49;26.60;7.20
418;DHT22;49;48.530;9.200;2023-05-29T12:15:16;26.80;7.00
418;DHT22;49;48.530;9.200;2023-05-29T12:17:44;26.90;7.00
418;DHT22;49;48.530;9.200;2023-05-29T12:20:12;26.90;5.40
418;DHT22;49;48.530;9.200;2023-05-29T12:22:40;26.30;6.80
418;DHT22;49;48.530;9.200;2023-05-29T12:25:11;26.10;6.80
418;DHT22;49;48.530;9.200;2023-05-29T12:27:39;25.80;7.30
418;DHT22;49;48.530;9.200;2023-05-29T12:30:10;25.90;5.00
418;DHT22;49;48.530;9.200;2023-05-29T12:32:37;26.00;5.30
418;DHT22;49;48.530;9.200;2023-05-29T12:35:16;26.50;4.00
418;DHT22;49;48.530;9.200;2023-05-29T12:37:47;26.40;5.50
418;DHT22;49;48.530;9.200;2023-05-29T12:40:17;26.50;4.60
418;DHT22;49;48.530;9.200;2023-05-29T12:42:45;26.30;5.30
418;DHT22;49;48.530;9.200;2023-05-29T12:45:13;26.40;5.50
418;DHT22;49;48.530;9.200;2023-05-29T12:47:45;26.60;5.80
418;DHT22;49;48.530;9.200;2023-05-29T12:50:20;26.30;6.00
418;DHT22;49;48.530;9.200;2023-05-29T12:52:56;26.60;5.10
418;DHT22;49;48.530;9.200;2023-05-29T12:55:25;26.70;3.50
418;DHT22;49;48.530;9.200;2023-05-29T12:57:53;26.90;3.10
418;DHT22;49;48.530;9.200;2023-05-29T13:00:21;26.50;4.70
418;DHT22;49;48.530;9.200;2023-05-29T13:02:48;26.30;5.80
418;DHT22;49;48.530;9.200;2023-05-29T13:05:16;26.50;5.50
418;DHT22;49;48.530;9.200;2023-05-29T13:07:46;26.90;4.90
418;DHT22;49;48.530;9.200;2023-05-29T13:10:14;27.00;4.30
418;DHT22;49;48.530;9.200;2023-05-29T13:12:43;27.10;3.70
418;DHT22;49;48.530;9.200;2023-05-29T13:15:11;27.10;3.70
418;DHT22;49;48.530;9.200;2023-05-29T13:17:39;26.90;3.20
418;DHT22;49;48.530;9.200;2023-05-29T13:20:08;26.70;3.50
418;DHT22;49;48.530;9.200;2023-05-29T13:22:36;26.80;5.20
418;DHT22;49;48.530;9.200;2023-05-29T13:25:04;27.00;3.70
418;DHT22;49;48.530;9.200;2023-05-29T13:27:32;26.90;4.90
418;DHT22;49;48.530;9.200;2023-05-29T13:30:02;27.00;3.70
418;DHT22;49;48.530;9.200;2023-05-29T13:32:29;27.10;3.70
418;DHT22;49;48.530;9.200;2023-05-29T13:34:56;27.30;3.80
418;DHT22;49;48.530;9.200;2023-05-29T13:37:24;27.50;3.10
418;DHT22;49;48.530;9.200;2023-05-29T13:39:53;27.10;2.40
418;DHT22;49;48.530;9.200;2023-05-29T13:42:20;27.00;3.70
418;DHT22;49;48.530;9.200;2023-05-29T13:44:48;27.10;3.70
418;DHT22;49;48.530;9.200;2023-05-29T13:47:17;26.80;3.60
418;DHT22;49;48.530;9.200;2023-05-29T13:49:44;26.90;3.60
418;DHT22;49;48.530;9.200;2023-05-29T13:52:11;26.80;2.70
418;DHT22;49;48.530;9.200;2023-05-29T13:54:38;26.90;2.90
418;DHT22;49;48.530;9.200;2023-05-29T13:57:06;26.90;3.60
418;DHT22;49;48.530;9.200;2023-05-29T13:59:34;27.00;3.70
418;DHT22;49;48.530;9.200;2023-05-29T14:02:01;26.50;4.90
418;DHT22;49;48.530;9.200;2023-05-29T14:04:30;26.60;5.00
418;DHT22;49;48.530;9.200;2023-05-29T14:06:57;26.70;4.00
418;DHT22;49;48.530;9.200;2023-05-29T14:09:24;26.60;3.50
418;DHT22;49;48.530;9.200;2023-05-29T14:11:54;26.60;2.70
418;DHT22;49;48.530;9.200;2023-05-29T14:14:22;27.10;2.20
418;DHT22;49;48.530;9.200;2023-05-29T14:16:50;27.40;3.10
418;DHT22;49;48.530;9.200;2023-05-29T14:19:17;27.60;3.10
418;DHT22;49;48.530;9.200;2023-05-29T14:21:46;27.30;3.90
418;DHT22;49;48.530;9.200;2023-05-29T14:24:13;26.90;3.60
418;DHT22;49;48.530;9.200;2023-05-29T14:26:41;26.70;3.80
418;DHT22;49;48.530;9.200;2023-05-29T14:29:11;26.70;3.50
418;DHT22;49;48.530;9.200;2023-05-29T14:31:38;27.10;3.10
418;DHT22;49;48.530;9.200;2023-05-29T14:34:05;26.70;3.50
418;DHT22;49;48.530;9.200;2023-05-29T14:36:33;26.20;4.10
418;DHT22;49;48.530;9.200;2023-05-29T14:39:02;26.10;4.40
418;DHT22;49;48.530;9.200;2023-05-29T14:41:29;26.50;4.60
418;DHT22;49;48.530;9.200;2023-05-29T14:43:57;26.60;3.50
418;DHT22;49;48.530;9.200;2023-05-29T14:46:25;26.20;4.30
418;DHT22;49;48.530;9.200;2023-05-29T14:48:54;26.80;3.60
418;DHT22;49;48.530;9.200;2023-05-29T14:51:20;26.70;4.30
418;DHT22;49;48.530;9.200;2023-05-29T14:53:48;27.10;3.70
418;DHT22;49;48.530;9.200;2023-05-29T14:56:17;27.00;3.70
418;DHT22;49;48.530;9.200;2023-05-29T14:58:45;27.20;4.00
418;DHT22;49;48.530;9.200;2023-05-29T15:01:13;27.50;3.90
418;DHT22;49;48.530;9.200;2023-05-29T15:03:40;27.60;4.00
418;DHT22;49;48.530;9.200;2023-05-29T15:06:09;27.50;4.70
418;DHT22;49;48.530;9.200;2023-05-29T15:08:37;27.50;3.90
418;DHT22;49;48.530;9.200;2023-05-29T15:11:05;27.60;4.00
418;DHT22;49;48.530;9.200;2023-05-29T15:13:34;27.30;3.80
418;DHT22;49;48.530;9.200;2023-05-29T15:16:01;27.00;4.80
418;DHT22;49;48.530;9.200;2023-05-29T15:18:29;26.60;5.10
418;DHT22;49;48.530;9.200;2023-05-29T15:20:56;26.60;5.90
418;DHT22;49;48.530;9.200;2023-05-29T15:23:24;26.80;5.20
418;DHT22;49;48.530;9.200;2023-05-29T15:25:51;26.70;4.90
418;DHT22;49;48.530;9.200;2023-05-29T15:28:18;27.20;3.80
418;DHT22;49;48.530;9.200;2023-05-29T15:30:46;27.50;3.90
418;DHT22;49;48.530;9.200;2023-05-29T15:33:13;27.30;3.80
418;DHT22;49;48.530;9.200;2023-05-29T15:35:41;27.10;3.90
418;DHT22;49;48.530;9.200;2023-05-29T15:38:08;26.90;4.10
418;DHT22;49;48.530;9.200;2023-05-29T15:40:37;27.00;4.00
418;DHT22;49;48.530;9.200;2023-05-29T15:43:04;26.80;3.60
418;DHT22;49;48.530;9.200;2023-05-29T15:45:31;26.90;3.70
418;DHT22;49;48.530;9.200;2023-05-29T15:48:00;26.90;3.60
418;DHT22;49;48.530;9.200;2023-05-29T15:50:27;27.00;3.70
418;DHT22;49;48.530;9.200;2023-05-29T15:52:53;27.00;4.80
418;DHT22;49;48.530;9.200;2023-05-29T15:55:20;27.50;3.90
418;DHT22;49;48.530;9.200;2023-05-29T15:57:48;27.10;4.30
418;DHT22;49;48.530;9.200;2023-05-29T16:00:15;26.70;3.60
418;DHT22;49;48.530;9.200;2023-05-29T16:02:42;26.60;3.50
418;DHT22;49;48.530;9.200;2023-05-29T16:05:11;26.70;3.50
418;DHT22;49;48.530;9.200;2023-05-29T16:07:38;27.00;3.70
418;DHT22;49;48.530;9.200;2023-05-29T16:10:06;27.20;3.30
418;DHT22;49;48.530;9.200;2023-05-29T16:12:33;27.00;2.90
418;DHT22;49;48.530;9.200;2023-05-29T16:15:00;26.70;3.50
418;DHT22;49;48.530;9.200;2023-05-29T16:17:27;26.30;4.20
418;DHT22;49;48.530;9.200;2023-05-29T16:19:55;26.30;3.70
418;DHT22;49;48.530;9.200;2023-05-29T16:22:24;26.50;3.40
418;DHT22;49;48.530;9.200;2023-05-29T16:24:51;26.70;3.50
418;DHT22;49;48.530;9.200;2023-05-29T16:27:18;26.40;3.30
418;DHT22;49;48.530;9.200;2023-05-29T16:29:45;26.40;3.30
418;DHT22;49;48.530;9.200;2023-05-29T16:32:12;26.30;4.70
418;DHT22;49;48.530;9.200;2023-05-29T16:34:39;26.70;3.50
418;DHT22;49;48.530;9.200;2023-05-29T16:37:07;26.90;3.60
418;DHT22;49;48.530;9.200;2023-05-29T16:39:36;27.10;2.90
418;DHT22;49;48.530;9.200;2023-05-29T16:42:03;27.30;3.10
418;DHT22;49;48.530;9.200;2023-05-29T16:44:31;27.30;3.90
418;DHT22;49;48.530;9.200;2023-05-29T16:46:58;27.10;3.70
418;DHT22;49;48.530;9.200;2023-05-29T16:49:25;27.30;3.80
418;DHT22;49;48.530;9.200;2023-05-29T16:51:52;27.20;3.80
418;DHT22;49;48.530;9.200;2023-05-29T16:54:19;26.80;3.60
418;DHT22;49;48.530;9.200;2023-05-29T16:56:48;26.80;3.60
418;DHT22;49;48.530;9.200;2023-05-29T16:59:14;26.40;4.40
418;DHT22;49;48.530;9.200;2023-05-29T17:01:42;26.60;3.50
418;DHT22;49;48.530;9.200;2023-05-29T17:04:09;26.80;3.60
418;DHT22;49;48.530;9.200;2023-05-29T17:06:36;27.10;3.70
418;DHT22;49;48.530;9.200;2023-05-29T17:09:04;27.00;3.70
418;DHT22;49;48.530;9.200;2023-05-29T17:11:33;27.10;3.30
418;DHT22;49;48.530;9.200;2023-05-29T17:14:01;26.60;4.10
418;DHT22;49;48.530;9.200;2023-05-29T17:16:28;26.40;5.30